EZY9MT LFBD-EGKK
Flight info
| Callsign | EZY9MT |
|---|---|
| Flight time | N/A |
| Altitude | 34000 |
| Route | CNA DCT MANAK UY110 REN UP87 REVTU UP88 VASUX |
| Aircraft | A20N/M-SDE2E3FGHIRWXY/LB1 |
Departure
| Time | 2026-04-30 21:26 |
|---|---|
| Airport | Bordeaux–Mérignac Airport (LFBD) |
Arrival
| Time | N/A |
|---|---|
| Airport | London Gatwick Airport (EGKK) |
| Time | Latitude | Longitude | Altitude | Speed | Heading |
|---|---|---|---|---|---|
| 2026-04-30 21:18 | 44.83191 | -0.70365 | 166 ft | 0 kts | 135° |
| 2026-04-30 21:21 | 44.83202 | -0.70379 | 166 ft | 3 kts | 135° |
| 2026-04-30 21:21 | 44.83217 | -0.70401 | 166 ft | 3 kts | 135° |
| 2026-04-30 21:21 | 44.83239 | -0.70437 | 166 ft | 2 kts | 56° |
| 2026-04-30 21:22 | 44.83244 | -0.70431 | 166 ft | 0 kts | 46° |
| 2026-04-30 21:23 | 44.83254 | -0.70415 | 166 ft | 6 kts | 46° |
| 2026-04-30 21:24 | 44.83304 | -0.70342 | 165 ft | 14 kts | 46° |
| 2026-04-30 21:24 | 44.83395 | -0.70334 | 164 ft | 11 kts | 8° |
| 2026-04-30 21:24 | 44.83455 | -0.70248 | 163 ft | 14 kts | 48° |
| 2026-04-30 21:24 | 44.83534 | -0.70133 | 162 ft | 18 kts | 45° |
| 2026-04-30 21:25 | 44.83733 | -0.70054 | 160 ft | 18 kts | 333° |
| 2026-04-30 21:25 | 44.83838 | -0.70136 | 161 ft | 9 kts | 289° |
| 2026-04-30 21:25 | 44.83788 | -0.70215 | 161 ft | 28 kts | 225° |
| 2026-04-30 21:26 | 44.82848 | -0.71560 | 177 ft | 152 kts | 225° |
| 2026-04-30 21:26 | 44.82114 | -0.72597 | 806 ft | 147 kts | 224° |
| 2026-04-30 21:27 | 44.80629 | -0.74688 | 2075 ft | 153 kts | 224° |
| 2026-04-30 21:27 | 44.79846 | -0.75816 | 2504 ft | 169 kts | 224° |
| 2026-04-30 21:27 | 44.78989 | -0.77062 | 3015 ft | 182 kts | 224° |
| 2026-04-30 21:28 | 44.78279 | -0.80365 | 4607 ft | 191 kts | 287° |
| 2026-04-30 21:28 | 44.78715 | -0.81441 | 5187 ft | 193 kts | 312° |
| 2026-04-30 21:28 | 44.81700 | -0.82385 | 7079 ft | 210 kts | 1° |
| 2026-04-30 21:29 | 44.82727 | -0.82343 | 7403 ft | 226 kts | 1° |
| 2026-04-30 21:29 | 44.88143 | -0.82190 | 9270 ft | 288 kts | 0° |
| 2026-04-30 21:30 | 44.92266 | -0.81945 | 10886 ft | 313 kts | 13° |
| 2026-04-30 21:31 | 44.97941 | -0.76224 | 12886 ft | 351 kts | 43° |
| 2026-04-30 21:31 | 45.01627 | -0.71537 | 14653 ft | 360 kts | 42° |
| 2026-04-30 21:32 | 45.05405 | -0.66779 | 16311 ft | 367 kts | 42° |
| 2026-04-30 21:32 | 45.07336 | -0.64349 | 17124 ft | 371 kts | 42° |
| 2026-04-30 21:32 | 45.09249 | -0.61938 | 17923 ft | 375 kts | 42° |
| 2026-04-30 21:32 | 45.11214 | -0.59457 | 18671 ft | 379 kts | 42° |
| 2026-04-30 21:33 | 45.13231 | -0.57023 | 19371 ft | 382 kts | 37° |
| 2026-04-30 21:33 | 45.17967 | -0.53493 | 20755 ft | 389 kts | 19° |
| 2026-04-30 21:33 | 45.20556 | -0.52319 | 21452 ft | 392 kts | 18° |
| 2026-04-30 21:34 | 45.23168 | -0.51120 | 22132 ft | 396 kts | 18° |
| 2026-04-30 21:34 | 45.28463 | -0.48665 | 23458 ft | 403 kts | 19° |
| 2026-04-30 21:34 | 45.31131 | -0.47426 | 24077 ft | 406 kts | 19° |
| 2026-04-30 21:35 | 45.33823 | -0.46176 | 24659 ft | 408 kts | 18° |
| 2026-04-30 21:35 | 45.36503 | -0.44930 | 25200 ft | 411 kts | 18° |
| 2026-04-30 21:35 | 45.39237 | -0.43659 | 25763 ft | 413 kts | 18° |
| 2026-04-30 21:35 | 45.41984 | -0.42380 | 26318 ft | 415 kts | 18° |
| 2026-04-30 21:36 | 45.44744 | -0.41094 | 26834 ft | 418 kts | 18° |
| 2026-04-30 21:36 | 45.47519 | -0.39800 | 27345 ft | 420 kts | 18° |
| 2026-04-30 21:37 | 45.55912 | -0.35877 | 28763 ft | 428 kts | 18° |
| 2026-04-30 21:37 | 45.58755 | -0.34547 | 29213 ft | 431 kts | 17° |
| 2026-04-30 21:37 | 45.61693 | -0.33629 | 29623 ft | 433 kts | 6° |
| 2026-04-30 21:37 | 45.64676 | -0.33630 | 30046 ft | 435 kts | 354° |
| 2026-04-30 21:38 | 45.67643 | -0.34552 | 30431 ft | 438 kts | 341° |
| 2026-04-30 21:38 | 45.70423 | -0.36372 | 30761 ft | 442 kts | 329° |
| 2026-04-30 21:38 | 45.72916 | -0.38970 | 31120 ft | 445 kts | 322° |
| 2026-04-30 21:38 | 45.75357 | -0.41734 | 31502 ft | 447 kts | 322° |
| 2026-04-30 21:39 | 45.77799 | -0.44494 | 31964 ft | 446 kts | 322° |
| 2026-04-30 21:39 | 45.80234 | -0.47247 | 32432 ft | 446 kts | 322° |
| 2026-04-30 21:39 | 45.82650 | -0.49979 | 32871 ft | 445 kts | 322° |
| 2026-04-30 21:39 | 45.85078 | -0.52729 | 33328 ft | 444 kts | 322° |
| 2026-04-30 21:40 | 45.87501 | -0.55477 | 33802 ft | 442 kts | 322° |
| 2026-04-30 21:40 | 45.89919 | -0.58222 | 34117 ft | 441 kts | 322° |
| 2026-04-30 21:40 | 45.94716 | -0.63680 | 34158 ft | 439 kts | 322° |
| 2026-04-30 21:41 | 45.99501 | -0.69136 | 34170 ft | 439 kts | 322° |
| 2026-04-30 21:41 | 46.04284 | -0.74601 | 34160 ft | 439 kts | 322° |
| 2026-04-30 21:42 | 46.09067 | -0.80077 | 34167 ft | 439 kts | 322° |
| 2026-04-30 21:42 | 46.13829 | -0.85543 | 34156 ft | 438 kts | 322° |
| 2026-04-30 21:43 | 46.18603 | -0.91036 | 34163 ft | 438 kts | 322° |
| 2026-04-30 21:43 | 46.23376 | -0.96538 | 34159 ft | 438 kts | 322° |
| 2026-04-30 21:44 | 46.28139 | -1.02045 | 34152 ft | 438 kts | 322° |
| 2026-04-30 21:44 | 46.32899 | -1.07559 | 34157 ft | 438 kts | 322° |
| 2026-04-30 21:45 | 46.37648 | -1.13074 | 34159 ft | 438 kts | 321° |
| 2026-04-30 21:45 | 46.42406 | -1.18611 | 34157 ft | 438 kts | 321° |
| 2026-04-30 21:46 | 46.47162 | -1.24160 | 34158 ft | 439 kts | 321° |
| 2026-04-30 21:46 | 46.51889 | -1.29686 | 34157 ft | 439 kts | 321° |
| 2026-04-30 21:47 | 46.56649 | -1.35266 | 34155 ft | 439 kts | 321° |
| 2026-04-30 21:47 | 46.61699 | -1.40293 | 34149 ft | 439 kts | 332° |
| 2026-04-30 21:48 | 46.67205 | -1.44217 | 34144 ft | 440 kts | 334° |
| 2026-04-30 21:48 | 46.72681 | -1.48120 | 34145 ft | 441 kts | 334° |
| 2026-04-30 21:49 | 46.78215 | -1.52061 | 34154 ft | 442 kts | 334° |
| 2026-04-30 21:49 | 46.83782 | -1.55933 | 34158 ft | 443 kts | 338° |
| 2026-04-30 21:50 | 46.89714 | -1.58384 | 34160 ft | 444 kts | 350° |
| 2026-04-30 21:50 | 46.95894 | -1.59194 | 34162 ft | 445 kts | 355° |
| 2026-04-30 21:51 | 47.02045 | -1.59843 | 34163 ft | 446 kts | 355° |
| 2026-04-30 21:51 | 47.08254 | -1.60490 | 34166 ft | 447 kts | 355° |
| 2026-04-30 21:52 | 47.14476 | -1.61128 | 34167 ft | 447 kts | 356° |
| 2026-04-30 21:52 | 47.20649 | -1.61849 | 34156 ft | 446 kts | 354° |
| 2026-04-30 21:53 | 47.26850 | -1.62721 | 34157 ft | 447 kts | 354° |
| 2026-04-30 21:53 | 47.33024 | -1.63573 | 34157 ft | 448 kts | 355° |
| 2026-04-30 21:54 | 47.39243 | -1.64435 | 34155 ft | 449 kts | 355° |
| 2026-04-30 21:54 | 47.45465 | -1.65325 | 34150 ft | 448 kts | 354° |
| 2026-04-30 21:55 | 47.51655 | -1.66209 | 34143 ft | 448 kts | 355° |
| 2026-04-30 21:55 | 47.57877 | -1.67097 | 34133 ft | 449 kts | 355° |
| 2026-04-30 21:56 | 47.64108 | -1.67988 | 34148 ft | 452 kts | 355° |
| 2026-04-30 21:56 | 47.70382 | -1.68887 | 34148 ft | 452 kts | 355° |
| 2026-04-30 21:57 | 47.76655 | -1.69788 | 34148 ft | 453 kts | 354° |
| 2026-04-30 21:57 | 47.82929 | -1.70692 | 34149 ft | 453 kts | 354° |
| 2026-04-30 21:58 | 47.89219 | -1.71600 | 34153 ft | 454 kts | 354° |
| 2026-04-30 21:58 | 47.95513 | -1.72510 | 34158 ft | 454 kts | 354° |
| 2026-04-30 21:59 | 48.01814 | -1.73425 | 34162 ft | 455 kts | 354° |
| 2026-04-30 22:00 | 48.11256 | -1.74206 | 34159 ft | 455 kts | 360° |
| 2026-04-30 22:00 | 48.20778 | -1.74329 | 34158 ft | 455 kts | 359° |
| 2026-04-30 22:01 | 48.27116 | -1.74410 | 34148 ft | 455 kts | 359° |
| 2026-04-30 22:01 | 48.33438 | -1.74487 | 34331 ft | 458 kts | 359° |
| 2026-04-30 22:02 | 48.36628 | -1.74526 | 34688 ft | 457 kts | 359° |
| 2026-04-30 22:02 | 48.39810 | -1.74564 | 35043 ft | 457 kts | 359° |
| 2026-04-30 22:02 | 48.43003 | -1.74603 | 35393 ft | 456 kts | 359° |
| 2026-04-30 22:02 | 48.46188 | -1.74642 | 35724 ft | 456 kts | 359° |
| 2026-04-30 22:03 | 48.49322 | -1.74680 | 36052 ft | 455 kts | 359° |
| 2026-04-30 22:03 | 48.52490 | -1.74719 | 36372 ft | 455 kts | 359° |
| 2026-04-30 22:03 | 48.55656 | -1.74757 | 36682 ft | 455 kts | 359° |
| 2026-04-30 22:03 | 48.58819 | -1.74796 | 37005 ft | 454 kts | 359° |
| 2026-04-30 22:04 | 48.61986 | -1.74835 | 37297 ft | 454 kts | 359° |
| 2026-04-30 22:04 | 48.65142 | -1.74874 | 37597 ft | 453 kts | 359° |
| 2026-04-30 22:04 | 48.71447 | -1.74951 | 38112 ft | 453 kts | 359° |